sensor_id;sensor_type;location;lat;lon;timestamp;temperature;humidity
21001;DHT22;10658;50.920;12.238;2022-10-04T00:00:25;11.60;99.90
21001;DHT22;10658;50.920;12.238;2022-10-04T00:04:31;11.60;99.90
21001;DHT22;10658;50.920;12.238;2022-10-04T00:08:44;11.60;99.90
21001;DHT22;10658;50.920;12.238;2022-10-04T00:12:51;11.60;99.90
21001;DHT22;10658;50.920;12.238;2022-10-04T00:16:53;11.50;99.90
21001;DHT22;10658;50.920;12.238;2022-10-04T00:20:59;11.50;99.90
21001;DHT22;10658;50.920;12.238;2022-10-04T00:29:29;11.50;99.90
21001;DHT22;10658;50.920;12.238;2022-10-04T00:33:38;11.40;99.90
21001;DHT22;10658;50.920;12.238;2022-10-04T00:50:19;11.50;99.90
21001;DHT22;10658;50.920;12.238;2022-10-04T00:54:31;11.50;99.90
21001;DHT22;10658;50.920;12.238;2022-10-04T00:59:02;11.50;99.90
21001;DHT22;10658;50.920;12.238;2022-10-04T01:03:25;11.50;99.90
21001;DHT22;10658;50.920;12.238;2022-10-04T01:11:51;11.50;99.90
21001;DHT22;10658;50.920;12.238;2022-10-04T01:20:39;11.50;99.90
21001;DHT22;10658;50.920;12.238;2022-10-04T01:24:43;11.50;99.90
21001;DHT22;10658;50.920;12.238;2022-10-04T01:28:45;11.50;99.90
21001;DHT22;10658;50.920;12.238;2022-10-04T01:32:46;11.50;99.90
21001;DHT22;10658;50.920;12.238;2022-10-04T01:36:48;11.50;99.90
21001;DHT22;10658;50.920;12.238;2022-10-04T01:40:55;11.40;99.90
21001;DHT22;10658;50.920;12.238;2022-10-04T01:49:10;11.40;99.90
21001;DHT22;10658;50.920;12.238;2022-10-04T01:53:28;11.40;99.90
21001;DHT22;10658;50.920;12.238;2022-10-04T01:57:34;11.30;99.90
21001;DHT22;10658;50.920;12.238;2022-10-04T02:01:48;11.30;99.90
21001;DHT22;10658;50.920;12.238;2022-10-04T02:05:55;11.30;99.90
21001;DHT22;10658;50.920;12.238;2022-10-04T02:10:00;11.20;99.90
21001;DHT22;10658;50.920;12.238;2022-10-04T02:14:03;11.20;99.90
21001;DHT22;10658;50.920;12.238;2022-10-04T02:18:13;11.20;99.90
21001;DHT22;10658;50.920;12.238;2022-10-04T02:22:16;11.20;99.90
21001;DHT22;10658;50.920;12.238;2022-10-04T02:26:18;11.10;99.90
21001;DHT22;10658;50.920;12.238;2022-10-04T02:30:21;11.10;99.90
21001;DHT22;10658;50.920;12.238;2022-10-04T02:34:22;11.10;99.90
21001;DHT22;10658;50.920;12.238;2022-10-04T02:38:35;11.10;99.90
21001;DHT22;10658;50.920;12.238;2022-10-04T02:42:41;11.10;99.90
21001;DHT22;10658;50.920;12.238;2022-10-04T02:51:05;10.90;99.90
21001;DHT22;10658;50.920;12.238;2022-10-04T02:55:23;10.90;99.90
21001;DHT22;10658;50.920;12.238;2022-10-04T02:59:29;10.90;99.90
21001;DHT22;10658;50.920;12.238;2022-10-04T03:03:33;10.80;99.90
21001;DHT22;10658;50.920;12.238;2022-10-04T03:07:37;10.70;99.90
21001;DHT22;10658;50.920;12.238;2022-10-04T03:11:40;10.70;99.90
21001;DHT22;10658;50.920;12.238;2022-10-04T03:15:42;10.60;99.90
21001;DHT22;10658;50.920;12.238;2022-10-04T03:19:43;10.60;99.90
21001;DHT22;10658;50.920;12.238;2022-10-04T03:23:50;10.50;99.90
21001;DHT22;10658;50.920;12.238;2022-10-04T03:27:51;10.50;99.90
21001;DHT22;10658;50.920;12.238;2022-10-04T03:31:55;10.50;99.90
21001;DHT22;10658;50.920;12.238;2022-10-04T03:35:59;10.40;99.90
21001;DHT22;10658;50.920;12.238;2022-10-04T03:40:01;10.40;99.90
21001;DHT22;10658;50.920;12.238;2022-10-04T03:44:04;10.30;99.90
21001;DHT22;10658;50.920;12.238;2022-10-04T03:48:11;10.30;99.90
21001;DHT22;10658;50.920;12.238;2022-10-04T03:52:28;10.30;99.90
21001;DHT22;10658;50.920;12.238;2022-10-04T03:56:34;10.20;99.90
21001;DHT22;10658;50.920;12.238;2022-10-04T04:00:41;10.20;99.90
21001;DHT22;10658;50.920;12.238;2022-10-04T04:05:03;10.10;99.90
21001;DHT22;10658;50.920;12.238;2022-10-04T04:09:08;10.10;99.90
21001;DHT22;10658;50.920;12.238;2022-10-04T04:13:41;10.10;99.90
21001;DHT22;10658;50.920;12.238;2022-10-04T04:17:50;10.10;99.90
21001;DHT22;10658;50.920;12.238;2022-10-04T04:21:53;10.10;99.90
21001;DHT22;10658;50.920;12.238;2022-10-04T04:26:00;10.10;99.90
21001;DHT22;10658;50.920;12.238;2022-10-04T04:30:15;10.10;99.90
21001;DHT22;10658;50.920;12.238;2022-10-04T04:34:21;10.10;99.90
21001;DHT22;10658;50.920;12.238;2022-10-04T04:38:24;10.10;99.90
21001;DHT22;10658;50.920;12.238;2022-10-04T04:42:30;10.10;99.90
21001;DHT22;10658;50.920;12.238;2022-10-04T04:46:32;10.10;99.90
21001;DHT22;10658;50.920;12.238;2022-10-04T04:50:36;10.10;99.90
21001;DHT22;10658;50.920;12.238;2022-10-04T04:54:38;10.10;99.90
21001;DHT22;10658;50.920;12.238;2022-10-04T04:58:42;10.10;99.90
21001;DHT22;10658;50.920;12.238;2022-10-04T05:02:51;10.10;99.90
21001;DHT22;10658;50.920;12.238;2022-10-04T05:07:15;10.00;99.90
21001;DHT22;10658;50.920;12.238;2022-10-04T05:11:18;10.00;99.90
21001;DHT22;10658;50.920;12.238;2022-10-04T05:15:21;10.00;99.90
21001;DHT22;10658;50.920;12.238;2022-10-04T05:19:23;10.00;99.90
21001;DHT22;10658;50.920;12.238;2022-10-04T05:23:31;10.00;99.90
21001;DHT22;10658;50.920;12.238;2022-10-04T05:27:38;10.00;99.90
21001;DHT22;10658;50.920;12.238;2022-10-04T05:36:33;10.00;99.90
21001;DHT22;10658;50.920;12.238;2022-10-04T05:40:44;10.10;99.90
21001;DHT22;10658;50.920;12.238;2022-10-04T05:44:50;10.10;99.90
21001;DHT22;10658;50.920;12.238;2022-10-04T05:49:12;10.10;99.90
21001;DHT22;10658;50.920;12.238;2022-10-04T05:57:39;10.40;99.90
21001;DHT22;10658;50.920;12.238;2022-10-04T06:06:29;11.00;99.90
21001;DHT22;10658;50.920;12.238;2022-10-04T06:24:14;11.40;99.90
21001;DHT22;10658;50.920;12.238;2022-10-04T06:28:32;11.20;99.90
21001;DHT22;10658;50.920;12.238;2022-10-04T06:41:18;10.90;99.90
21001;DHT22;10658;50.920;12.238;2022-10-04T06:45:44;10.90;99.90
21001;DHT22;10658;50.920;12.238;2022-10-04T07:03:16;11.20;99.90
21001;DHT22;10658;50.920;12.238;2022-10-04T07:07:28;11.30;99.90
21001;DHT22;10658;50.920;12.238;2022-10-04T07:11:53;11.30;99.90
21001;DHT22;10658;50.920;12.238;2022-10-04T07:16:23;11.30;99.90
21001;DHT22;10658;50.920;12.238;2022-10-04T07:20:29;11.30;99.90
21001;DHT22;10658;50.920;12.238;2022-10-04T07:29:03;11.40;99.90
21001;DHT22;10658;50.920;12.238;2022-10-04T07:33:25;11.60;99.90
21001;DHT22;10658;50.920;12.238;2022-10-04T07:37:29;11.80;99.90
21001;DHT22;10658;50.920;12.238;2022-10-04T07:41:33;12.10;99.90
21001;DHT22;10658;50.920;12.238;2022-10-04T07:45:37;12.10;99.90
21001;DHT22;10658;50.920;12.238;2022-10-04T07:49:40;12.20;99.90
21001;DHT22;10658;50.920;12.238;2022-10-04T07:54:34;12.30;99.90
21001;DHT22;10658;50.920;12.238;2022-10-04T08:07:09;12.50;99.90
21001;DHT22;10658;50.920;12.238;2022-10-04T08:42:45;13.20;99.90
21001;DHT22;10658;50.920;12.238;2022-10-04T09:04:53;13.50;99.90
21001;DHT22;10658;50.920;12.238;2022-10-04T09:19:16;13.50;99.90
21001;DHT22;10658;50.920;12.238;2022-10-04T09:41:30;13.90;99.90
21001;DHT22;10658;50.920;12.238;2022-10-04T09:50:08;14.60;99.90
21001;DHT22;10658;50.920;12.238;2022-10-04T10:07:37;14.70;99.90
21001;DHT22;10658;50.920;12.238;2022-10-04T10:11:56;14.90;99.90
21001;DHT22;10658;50.920;12.238;2022-10-04T10:21:43;14.70;99.90
21001;DHT22;10658;50.920;12.238;2022-10-04T10:26:12;15.20;99.90
21001;DHT22;10658;50.920;12.238;2022-10-04T10:35:05;15.80;99.90
21001;DHT22;10658;50.920;12.238;2022-10-04T10:48:15;15.70;99.90
21001;DHT22;10658;50.920;12.238;2022-10-04T10:52:54;16.20;99.90
21001;DHT22;10658;50.920;12.238;2022-10-04T10:57:29;17.10;99.90
21001;DHT22;10658;50.920;12.238;2022-10-04T11:06:14;17.30;99.90
21001;DHT22;10658;50.920;12.238;2022-10-04T11:14:51;17.30;99.90
21001;DHT22;10658;50.920;12.238;2022-10-04T11:37:06;17.40;99.90
21001;DHT22;10658;50.920;12.238;2022-10-04T11:41:13;18.10;99.90
21001;DHT22;10658;50.920;12.238;2022-10-04T11:45:52;18.60;99.90
21001;DHT22;10658;50.920;12.238;2022-10-04T11:50:18;18.00;99.90
21001;DHT22;10658;50.920;12.238;2022-10-04T12:35:25;17.30;99.90
21001;DHT22;10658;50.920;12.238;2022-10-04T12:52:25;16.70;99.90
21001;DHT22;10658;50.920;12.238;2022-10-04T12:56:58;16.60;99.90
21001;DHT22;10658;50.920;12.238;2022-10-04T13:05:41;16.60;99.90
21001;DHT22;10658;50.920;12.238;2022-10-04T13:14:28;16.70;99.90
21001;DHT22;10658;50.920;12.238;2022-10-04T13:23:22;16.70;99.90
21001;DHT22;10658;50.920;12.238;2022-10-04T13:32:00;16.60;99.90
21001;DHT22;10658;50.920;12.238;2022-10-04T13:36:12;16.70;99.90
21001;DHT22;10658;50.920;12.238;2022-10-04T13:40:39;16.70;99.90
21001;DHT22;10658;50.920;12.238;2022-10-04T13:49:22;17.00;99.90
21001;DHT22;10658;50.920;12.238;2022-10-04T13:53:46;17.00;99.90
21001;DHT22;10658;50.920;12.238;2022-10-04T14:24:22;17.20;99.90
21001;DHT22;10658;50.920;12.238;2022-10-04T14:28:49;17.10;99.90
21001;DHT22;10658;50.920;12.238;2022-10-04T14:51:34;17.00;99.90
21001;DHT22;10658;50.920;12.238;2022-10-04T15:00:19;17.00;99.90
21001;DHT22;10658;50.920;12.238;2022-10-04T15:09:16;16.90;99.90
21001;DHT22;10658;50.920;12.238;2022-10-04T15:21:59;16.80;99.90
21001;DHT22;10658;50.920;12.238;2022-10-04T15:34:39;16.40;99.90
21001;DHT22;10658;50.920;12.238;2022-10-04T15:38:51;16.30;99.90
21001;DHT22;10658;50.920;12.238;2022-10-04T15:52:37;16.20;99.90
21001;DHT22;10658;50.920;12.238;2022-10-04T16:00:58;16.10;99.90
21001;DHT22;10658;50.920;12.238;2022-10-04T16:32:13;14.70;99.90
21001;DHT22;10658;50.920;12.238;2022-10-04T16:36:21;14.40;99.90
21001;DHT22;10658;50.920;12.238;2022-10-04T16:44:57;14.00;99.90
21001;DHT22;10658;50.920;12.238;2022-10-04T16:49:37;13.80;99.90
21001;DHT22;10658;50.920;12.238;2022-10-04T17:02:40;13.40;99.90
21001;DHT22;10658;50.920;12.238;2022-10-04T17:07:26;13.30;99.90
21001;DHT22;10658;50.920;12.238;2022-10-04T17:11:40;13.20;99.90
21001;DHT22;10658;50.920;12.238;2022-10-04T17:15:45;13.10;99.90
21001;DHT22;10658;50.920;12.238;2022-10-04T17:19:52;13.00;99.90
21001;DHT22;10658;50.920;12.238;2022-10-04T17:24:31;12.90;99.90
21001;DHT22;10658;50.920;12.238;2022-10-04T17:28:55;12.80;99.90
21001;DHT22;10658;50.920;12.238;2022-10-04T17:33:13;12.70;99.90
21001;DHT22;10658;50.920;12.238;2022-10-04T17:37:57;12.60;99.90
21001;DHT22;10658;50.920;12.238;2022-10-04T17:42:25;12.50;99.90
21001;DHT22;10658;50.920;12.238;2022-10-04T17:46:41;12.40;99.90
21001;DHT22;10658;50.920;12.238;2022-10-04T17:50:49;12.40;99.90
21001;DHT22;10658;50.920;12.238;2022-10-04T17:55:26;12.20;99.90
21001;DHT22;10658;50.920;12.238;2022-10-04T17:59:37;12.00;99.90
21001;DHT22;10658;50.920;12.238;2022-10-04T18:03:48;12.00;99.90
21001;DHT22;10658;50.920;12.238;2022-10-04T18:08:09;11.90;99.90
21001;DHT22;10658;50.920;12.238;2022-10-04T18:16:30;11.70;99.90
21001;DHT22;10658;50.920;12.238;2022-10-04T18:21:45;11.60;99.90
21001;DHT22;10658;50.920;12.238;2022-10-04T18:25:30;11.50;99.90
21001;DHT22;10658;50.920;12.238;2022-10-04T18:29:40;11.50;99.90
21001;DHT22;10658;50.920;12.238;2022-10-04T18:37:42;11.40;99.90
21001;DHT22;10658;50.920;12.238;2022-10-04T18:42:16;11.30;99.90
21001;DHT22;10658;50.920;12.238;2022-10-04T18:46:20;11.20;99.90
21001;DHT22;10658;50.920;12.238;2022-10-04T18:50:29;11.20;99.90
21001;DHT22;10658;50.920;12.238;2022-10-04T18:59:30;11.00;99.90
21001;DHT22;10658;50.920;12.238;2022-10-04T19:04:02;11.00;99.90
21001;DHT22;10658;50.920;12.238;2022-10-04T19:12:22;10.90;99.90
21001;DHT22;10658;50.920;12.238;2022-10-04T19:17:00;10.80;99.90
21001;DHT22;10658;50.920;12.238;2022-10-04T19:25:49;10.80;99.90
21001;DHT22;10658;50.920;12.238;2022-10-04T19:34:10;10.80;99.90
21001;DHT22;10658;50.920;12.238;2022-10-04T19:38:39;10.70;99.90
21001;DHT22;10658;50.920;12.238;2022-10-04T19:47:04;10.50;99.90
21001;DHT22;10658;50.920;12.238;2022-10-04T19:51:37;10.30;99.90
21001;DHT22;10658;50.920;12.238;2022-10-04T19:59:49;10.30;99.90
21001;DHT22;10658;50.920;12.238;2022-10-04T20:03:51;10.40;99.90
21001;DHT22;10658;50.920;12.238;2022-10-04T20:08:16;10.20;99.90
21001;DHT22;10658;50.920;12.238;2022-10-04T20:17:02;10.20;99.90
21001;DHT22;10658;50.920;12.238;2022-10-04T20:21:07;10.20;99.90
21001;DHT22;10658;50.920;12.238;2022-10-04T20:25:08;10.20;99.90
21001;DHT22;10658;50.920;12.238;2022-10-04T20:29:10;10.30;99.90
21001;DHT22;10658;50.920;12.238;2022-10-04T20:42:06;10.20;99.90
21001;DHT22;10658;50.920;12.238;2022-10-04T20:46:24;10.20;99.90
21001;DHT22;10658;50.920;12.238;2022-10-04T20:50:38;10.10;99.90
21001;DHT22;10658;50.920;12.238;2022-10-04T20:54:52;10.10;99.90
21001;DHT22;10658;50.920;12.238;2022-10-04T20:58:54;10.10;99.90
21001;DHT22;10658;50.920;12.238;2022-10-04T21:03:07;10.20;99.90
21001;DHT22;10658;50.920;12.238;2022-10-04T21:07:17;10.10;99.90
21001;DHT22;10658;50.920;12.238;2022-10-04T21:11:19;10.10;99.90
21001;DHT22;10658;50.920;12.238;2022-10-04T21:15:21;10.00;99.90
21001;DHT22;10658;50.920;12.238;2022-10-04T21:23:34;10.10;99.90
21001;DHT22;10658;50.920;12.238;2022-10-04T21:27:37;10.00;99.90
21001;DHT22;10658;50.920;12.238;2022-10-04T21:31:38;10.10;99.90
21001;DHT22;10658;50.920;12.238;2022-10-04T21:35:39;10.10;99.90
21001;DHT22;10658;50.920;12.238;2022-10-04T21:39:41;10.00;99.90
21001;DHT22;10658;50.920;12.238;2022-10-04T21:43:42;9.90;99.90
21001;DHT22;10658;50.920;12.238;2022-10-04T21:47:43;9.80;99.90
21001;DHT22;10658;50.920;12.238;2022-10-04T21:51:44;9.80;99.90
21001;DHT22;10658;50.920;12.238;2022-10-04T21:55:46;9.70;99.90
21001;DHT22;10658;50.920;12.238;2022-10-04T21:59:47;9.70;99.90
21001;DHT22;10658;50.920;12.238;2022-10-04T22:03:49;9.60;99.90
21001;DHT22;10658;50.920;12.238;2022-10-04T22:07:50;9.50;99.90
21001;DHT22;10658;50.920;12.238;2022-10-04T22:11:51;9.50;99.90
21001;DHT22;10658;50.920;12.238;2022-10-04T22:15:52;9.50;99.90
21001;DHT22;10658;50.920;12.238;2022-10-04T22:19:53;9.40;99.90
21001;DHT22;10658;50.920;12.238;2022-10-04T22:23:55;9.20;99.90
21001;DHT22;10658;50.920;12.238;2022-10-04T22:27:57;9.20;99.90
21001;DHT22;10658;50.920;12.238;2022-10-04T22:31:59;9.20;99.90
21001;DHT22;10658;50.920;12.238;2022-10-04T22:40:22;9.00;99.90
21001;DHT22;10658;50.920;12.238;2022-10-04T22:44:30;9.00;99.90
21001;DHT22;10658;50.920;12.238;2022-10-04T22:48:34;9.00;99.90
21001;DHT22;10658;50.920;12.238;2022-10-04T22:52:35;8.90;99.90
21001;DHT22;10658;50.920;12.238;2022-10-04T22:56:37;8.90;99.90
21001;DHT22;10658;50.920;12.238;2022-10-04T23:00:40;8.90;99.90
21001;DHT22;10658;50.920;12.238;2022-10-04T23:04:44;8.90;99.90
21001;DHT22;10658;50.920;12.238;2022-10-04T23:08:45;8.90;99.90
21001;DHT22;10658;50.920;12.238;2022-10-04T23:12:47;9.00;99.90
21001;DHT22;10658;50.920;12.238;2022-10-04T23:16:49;9.10;99.90
21001;DHT22;10658;50.920;12.238;2022-10-04T23:20:54;9.20;99.90
21001;DHT22;10658;50.920;12.238;2022-10-04T23:24:58;9.40;99.90
21001;DHT22;10658;50.920;12.238;2022-10-04T23:29:00;9.60;99.90
21001;DHT22;10658;50.920;12.238;2022-10-04T23:33:01;9.70;99.90
21001;DHT22;10658;50.920;12.238;2022-10-04T23:37:03;9.80;99.90
21001;DHT22;10658;50.920;12.238;2022-10-04T23:41:11;9.90;99.90
21001;DHT22;10658;50.920;12.238;2022-10-04T23:45:19;10.10;99.90
21001;DHT22;10658;50.920;12.238;2022-10-04T23:49:20;10.30;99.90
21001;DHT22;10658;50.920;12.238;2022-10-04T23:53:24;10.40;99.90
21001;DHT22;10658;50.920;12.238;2022-10-04T23:57:28;10.60;99.90
